Terminal Aerodrome Forecast
Issued by NWS

Home | Current Version | Previous Version | Graphics & Text | Print | Product List | Glossary On
Versions: 1 2 3 4 5 6 7 8 9 10 11 12
492
FTUS43 KIWX 251120
TAFSBN
TAF
KSBN 251120Z 2512/2612 26005KT P6SM BKN040
     FM251400 31006KT P6SM SCT040
     FM251600 32010KT P6SM SCT150
     FM260200 VRB03KT P6SM SKC=

USA.gov is the U.S. government's official web portal to all federal, state and local government web resources and services.